Time;durP1;ratioP1;P1;durP2;ratioP2;P2;SDS_P1;SDS_P2;PMS_P1;PMS_P2;Temp;Humidity;BMP_temperature;BMP_pressure;BME280_temperature;BME280_humidity;BME280_pressure;Samples;Min_cycle;Max_cycle;Signal;HPM_P1;HPM_P2
2021/07/08 00:01:05;;;;;;;3.38;3.17;;;14.50;99.90;;;;;;4967882;28;20053;-83
2021/07/08 00:03:33;;;;;;;3.80;3.25;;;14.50;99.90;;;;;;4962546;28;20117;-83
2021/07/08 00:06:00;;;;;;;3.17;2.88;;;14.50;99.90;;;;;;4964788;28;20374;-83
2021/07/08 00:08:27;;;;;;;3.00;2.80;;;14.50;99.90;;;;;;4965550;28;20070;-83
2021/07/08 00:10:55;;;;;;;4.75;2.83;;;14.50;99.90;;;;;;4967751;28;20501;-83
2021/07/08 00:13:25;;;;;;;3.15;2.95;;;14.40;99.90;;;;;;4947992;28;20065;-83
2021/07/08 00:15:54;;;;;;;3.25;3.05;;;14.50;99.90;;;;;;4964952;28;20079;-83
2021/07/08 00:18:23;;;;;;;3.72;3.45;;;14.50;99.90;;;;;;4965637;28;20059;-83
2021/07/08 00:20:51;;;;;;;5.40;4.20;;;14.60;99.90;;;;;;4965815;28;21145;-83
2021/07/08 00:23:20;;;;;;;3.72;3.53;;;14.60;99.90;;;;;;4963942;28;20437;-83
2021/07/08 00:25:48;;;;;;;3.72;3.53;;;14.70;99.90;;;;;;4957559;28;20093;-83
2021/07/08 00:28:16;;;;;;;4.18;3.85;;;14.70;99.90;;;;;;4965761;28;20102;-83
2021/07/08 00:30:45;;;;;;;4.78;3.15;;;14.80;99.90;;;;;;4965836;28;20528;-83
2021/07/08 00:33:13;;;;;;;3.20;3.00;;;14.80;99.90;;;;;;4948141;28;20069;-83
2021/07/08 00:35:40;;;;;;;6.03;3.95;;;14.80;99.90;;;;;;4965839;28;20563;-83
2021/07/08 00:38:08;;;;;;;4.88;4.47;;;14.80;99.90;;;;;;4963518;28;20058;-83
2021/07/08 00:40:35;;;;;;;3.83;3.50;;;14.90;99.90;;;;;;4991040;28;20065;-83
2021/07/08 00:43:02;;;;;;;5.10;4.70;;;14.90;99.90;;;;;;4966396;28;20054;-82
2021/07/08 00:45:30;;;;;;;4.38;4.05;;;15.00;99.90;;;;;;4960973;28;20050;-83
2021/07/08 00:47:57;;;;;;;4.75;4.32;;;15.00;99.90;;;;;;4964615;28;20057;-83
2021/07/08 00:50:33;;;;;;;8.57;5.15;;;15.00;99.90;;;;;;4981604;28;20047;-83
2021/07/08 00:53:02;;;;;;;8.50;4.18;;;15.00;99.90;;;;;;4963577;28;20544;-83
2021/07/08 00:55:30;;;;;;;5.25;4.75;;;15.00;99.90;;;;;;4949307;28;20974;-83
2021/07/08 00:57:57;;;;;;;5.38;4.78;;;15.00;99.90;;;;;;4948144;28;20141;-83
2021/07/08 01:00:24;;;;;;;4.40;4.10;;;15.00;99.90;;;;;;4960866;28;20093;-83
2021/07/08 01:02:52;;;;;;;6.07;5.47;;;15.10;99.90;;;;;;4965239;28;20035;-83
2021/07/08 01:05:21;;;;;;;7.82;5.72;;;15.20;99.90;;;;;;4964807;28;20085;-83
2021/07/08 01:07:48;;;;;;;6.75;6.07;;;15.20;99.90;;;;;;4967246;28;20066;-83
2021/07/08 01:10:16;;;;;;;7.38;6.60;;;15.30;99.90;;;;;;4965496;28;20058;-83
2021/07/08 01:12:43;;;;;;;6.82;5.43;;;15.50;99.90;;;;;;4964594;28;20043;-83
2021/07/08 01:15:11;;;;;;;6.25;5.50;;;15.60;99.90;;;;;;4968770;28;20113;-83
2021/07/08 01:17:40;;;;;;;7.35;6.00;;;15.80;99.90;;;;;;4967181;28;20425;-83
2021/07/08 01:20:08;;;;;;;7.35;5.55;;;16.00;99.90;;;;;;4968157;28;20051;-83
2021/07/08 01:22:36;;;;;;;5.03;4.70;;;16.20;99.90;;;;;;4968005;28;20081;-83
2021/07/08 01:25:08;;;;;;;5.97;4.63;;;16.30;99.90;;;;;;4966221;28;20047;-83
2021/07/08 01:27:36;;;;;;;9.63;5.13;;;16.40;99.90;;;;;;4968987;28;20050;-83
2021/07/08 01:30:06;;;;;;;5.82;4.70;;;16.40;99.90;;;;;;4951517;28;20039;-83
2021/07/08 01:32:33;;;;;;;5.30;4.80;;;16.40;99.90;;;;;;4968336;28;20042;-83
2021/07/08 01:35:01;;;;;;;4.95;4.05;;;16.50;99.90;;;;;;4970086;28;20042;-83
2021/07/08 01:37:28;;;;;;;4.72;4.32;;;16.60;99.90;;;;;;4964450;28;20050;-82
2021/07/08 01:39:57;;;;;;;6.10;4.45;;;16.60;99.90;;;;;;4980634;28;20549;-82
2021/07/08 01:42:25;;;;;;;5.68;4.40;;;16.70;99.90;;;;;;4982498;28;20061;-83
2021/07/08 01:44:52;;;;;;;4.65;4.25;;;16.70;99.90;;;;;;4968501;28;20039;-83
2021/07/08 01:47:19;;;;;;;3.45;2.95;;;16.80;99.90;;;;;;4972322;28;20065;-83
2021/07/08 01:49:46;;;;;;;3.80;3.13;;;16.70;99.90;;;;;;4952849;28;20415;-83
2021/07/08 01:52:13;;;;;;;3.60;3.30;;;16.80;99.90;;;;;;4966320;28;20046;-83
2021/07/08 01:54:41;;;;;;;4.68;3.88;;;16.70;99.90;;;;;;4970324;28;20081;-83
2021/07/08 01:57:08;;;;;;;6.30;3.72;;;16.70;99.90;;;;;;4968960;28;20046;-83
2021/07/08 01:59:35;;;;;;;4.50;3.95;;;16.70;99.90;;;;;;4981558;28;20496;-83
2021/07/08 02:02:02;;;;;;;5.43;3.75;;;16.70;99.90;;;;;;4965392;28;20089;-83
2021/07/08 02:04:29;;;;;;;4.85;3.75;;;16.70;99.90;;;;;;4968647;28;20050;-83
2021/07/08 02:06:56;;;;;;;7.90;3.85;;;16.70;99.90;;;;;;4967775;28;20050;-83
2021/07/08 02:09:23;;;;;;;7.05;3.45;;;16.80;99.90;;;;;;4968923;28;20066;-83
2021/07/08 02:11:50;;;;;;;4.03;2.97;;;16.80;99.90;;;;;;4966438;28;20115;-83
2021/07/08 02:14:17;;;;;;;3.38;3.13;;;16.80;99.90;;;;;;4966814;28;20117;-82
2021/07/08 02:16:44;;;;;;;4.05;3.58;;;16.80;99.90;;;;;;4950700;28;20399;-83
2021/07/08 02:19:12;;;;;;;4.25;3.83;;;16.90;99.90;;;;;;4967481;28;20142;-83
2021/07/08 02:21:39;;;;;;;4.57;4.18;;;16.90;99.90;;;;;;4964974;28;20054;-83
2021/07/08 02:24:05;;;;;;;2.75;2.55;;;16.90;99.90;;;;;;4967716;28;20058;-83
2021/07/08 02:26:32;;;;;;;3.03;2.72;;;16.90;99.90;;;;;;4965375;28;20489;-82
2021/07/08 02:28:59;;;;;;;4.28;3.15;;;16.90;99.90;;;;;;4983602;28;20039;-83
2021/07/08 02:31:26;;;;;;;3.75;3.22;;;16.90;99.90;;;;;;4968291;28;20094;-83
2021/07/08 02:33:53;;;;;;;6.70;3.08;;;16.90;99.90;;;;;;4966152;28;20081;-82
2021/07/08 02:36:20;;;;;;;3.40;2.97;;;17.00;99.90;;;;;;4967538;28;20043;-83
2021/07/08 02:38:48;;;;;;;3.58;3.33;;;17.00;99.90;;;;;;4966098;28;20043;-83
2021/07/08 02:41:15;;;;;;;4.13;2.55;;;16.90;99.90;;;;;;4967637;28;20047;-83
2021/07/08 02:43:42;;;;;;;3.20;2.92;;;17.00;99.90;;;;;;4968854;28;20051;-82
2021/07/08 02:46:09;;;;;;;5.18;3.20;;;17.10;99.90;;;;;;4966843;28;20465;-82
2021/07/08 02:48:36;;;;;;;2.28;2.17;;;17.10;99.90;;;;;;4967642;28;20049;-83
2021/07/08 02:51:03;;;;;;;3.20;2.90;;;17.10;99.90;;;;;;4963221;28;20035;-83
2021/07/08 02:53:30;;;;;;;3.05;2.85;;;17.10;99.90;;;;;;4961730;28;20051;-83
2021/07/08 02:55:57;;;;;;;3.53;2.65;;;17.20;99.90;;;;;;4948604;28;20047;-83
2021/07/08 02:58:24;;;;;;;3.72;2.90;;;17.20;99.90;;;;;;4977732;28;20058;-83
2021/07/08 03:00:51;;;;;;;3.60;3.15;;;17.20;99.90;;;;;;4948719;28;20729;-83
2021/07/08 03:03:18;;;;;;;3.63;3.33;;;17.20;99.90;;;;;;4963085;28;20154;-83
2021/07/08 03:05:45;;;;;;;2.17;2.08;;;17.20;99.90;;;;;;4948003;28;20047;-84
2021/07/08 03:08:12;;;;;;;3.65;3.13;;;17.20;99.90;;;;;;4976768;28;20557;-83
2021/07/08 03:10:40;;;;;;;6.63;2.83;;;17.20;99.90;;;;;;4949302;28;20130;-83
2021/07/08 03:13:07;;;;;;;5.63;3.13;;;17.30;99.90;;;;;;4946174;28;20047;-83
2021/07/08 03:15:35;;;;;;;3.00;2.80;;;17.30;99.90;;;;;;4963808;28;20036;-83
2021/07/08 03:18:02;;;;;;;5.20;2.63;;;17.40;99.90;;;;;;4961095;28;20418;-84
2021/07/08 03:20:34;;;;;;;3.92;3.20;;;17.40;99.90;;;;;;4978006;28;20036;-84
2021/07/08 03:23:03;;;;;;;6.90;3.63;;;17.40;99.90;;;;;;4947807;28;20043;-84
2021/07/08 03:25:30;;;;;;;4.63;3.63;;;17.30;99.90;;;;;;4947822;28;20054;-83
2021/07/08 03:27:58;;;;;;;2.38;2.17;;;17.40;99.90;;;;;;4947598;28;20512;-84
2021/07/08 03:30:27;;;;;;;3.58;3.22;;;17.30;99.90;;;;;;4948031;28;20047;-83
2021/07/08 03:32:54;;;;;;;7.03;3.50;;;17.40;99.90;;;;;;4963676;28;20465;-83
2021/07/08 03:35:27;;;;;;;3.97;2.58;;;17.30;99.90;;;;;;4946277;28;20058;-83
2021/07/08 03:37:55;;;;;;;4.97;3.35;;;17.30;99.90;;;;;;4947996;28;20118;-83
2021/07/08 03:40:22;;;;;;;3.83;2.58;;;17.40;99.90;;;;;;4976630;28;20101;-83
2021/07/08 03:42:49;;;;;;;3.35;2.45;;;17.40;99.90;;;;;;4948464;28;20119;-83
2021/07/08 03:45:19;;;;;;;3.47;2.35;;;17.40;99.90;;;;;;4962484;28;20503;-83
2021/07/08 03:47:46;;;;;;;5.03;2.95;;;17.50;99.90;;;;;;4948830;28;20067;-83
2021/07/08 03:50:14;;;;;;;4.90;2.55;;;17.50;99.90;;;;;;4943880;28;20445;-83
2021/07/08 03:52:43;;;;;;;4.32;2.45;;;17.50;99.90;;;;;;4948182;28;20114;-83
2021/07/08 03:55:13;;;;;;;2.70;2.47;;;17.50;99.90;;;;;;4961758;28;20070;-83
2021/07/08 03:57:52;;;;;;;3.85;2.45;;;17.50;99.90;;;;;;4948167;28;20058;-83
2021/07/08 04:00:32;;;;;;;2.88;2.50;;;17.50;99.90;;;;;;4944939;28;20043;-83
2021/07/08 04:03:02;;;;;;;2.80;2.60;;;17.60;99.90;;;;;;4978952;28;20055;-83
2021/07/08 04:05:30;;;;;;;4.10;2.83;;;17.70;99.90;;;;;;4949575;28;20644;-83
2021/07/08 04:07:58;;;;;;;2.75;2.55;;;17.70;99.90;;;;;;4941217;28;20051;-83
2021/07/08 04:10:26;;;;;;;5.10;2.90;;;17.70;99.90;;;;;;4947628;28;20479;-83
2021/07/08 04:12:55;;;;;;;2.90;2.53;;;17.70;99.90;;;;;;4935136;28;20166;-83
2021/07/08 04:15:22;;;;;;;3.08;2.55;;;17.70;99.90;;;;;;4947431;28;20050;-83
2021/07/08 04:17:50;;;;;;;2.53;2.33;;;17.70;99.90;;;;;;4959895;28;20062;-83
2021/07/08 04:20:20;;;;;;;6.28;2.60;;;17.70;99.90;;;;;;4945663;28;20106;-83
2021/07/08 04:22:47;;;;;;;3.38;2.78;;;17.80;99.90;;;;;;4944398;28;20629;-83
2021/07/08 04:25:15;;;;;;;2.15;1.95;;;17.80;99.90;;;;;;4947197;28;20047;-83
2021/07/08 04:27:44;;;;;;;2.78;1.90;;;17.90;99.90;;;;;;4945429;28;20049;-83
2021/07/08 04:30:13;;;;;;;2.47;2.28;;;17.90;99.90;;;;;;4943876;28;20047;-83
2021/07/08 04:32:40;;;;;;;3.90;2.27;;;17.90;99.90;;;;;;4945960;28;20512;-83
2021/07/08 04:35:10;;;;;;;3.40;2.63;;;17.90;99.90;;;;;;4946488;28;20047;-84
2021/07/08 04:37:42;;;;;;;4.47;3.90;;;17.90;99.90;;;;;;4956319;28;20474;-83
2021/07/08 04:40:14;;;;;;;3.65;3.17;;;18.00;99.90;;;;;;4960356;28;20645;-83
2021/07/08 04:42:42;;;;;;;5.53;2.38;;;18.00;99.90;;;;;;4947507;28;20092;-83
2021/07/08 04:45:10;;;;;;;5.57;2.75;;;18.00;99.90;;;;;;4947732;28;20074;-83
2021/07/08 04:47:39;;;;;;;3.25;2.28;;;18.00;99.90;;;;;;4958156;28;20109;-83
2021/07/08 04:50:09;;;;;;;6.53;3.35;;;18.10;99.90;;;;;;4953774;28;20073;-84
2021/07/08 04:52:37;;;;;;;8.43;3.03;;;18.10;99.90;;;;;;4962272;28;20051;-83
2021/07/08 04:55:05;;;;;;;3.42;2.70;;;18.10;99.90;;;;;;4964773;28;20077;-83
2021/07/08 04:57:32;;;;;;;5.05;3.22;;;18.10;99.90;;;;;;4981667;28;20097;-84
2021/07/08 04:59:59;;;;;;;2.78;2.05;;;18.20;99.90;;;;;;4964845;28;20081;-83
2021/07/08 05:02:26;;;;;;;3.13;2.60;;;18.20;99.90;;;;;;4965362;28;20049;-84
2021/07/08 05:04:53;;;;;;;3.88;2.58;;;18.20;99.90;;;;;;4959856;28;20043;-84
2021/07/08 05:07:20;;;;;;;4.40;2.40;;;18.20;99.90;;;;;;4965146;28;20054;-84
2021/07/08 05:09:47;;;;;;;3.85;2.33;;;18.30;99.90;;;;;;4964745;28;20046;-84
2021/07/08 05:12:14;;;;;;;2.80;2.33;;;18.30;99.90;;;;;;4971115;28;20572;-84
2021/07/08 05:14:41;;;;;;;3.78;2.08;;;18.40;99.90;;;;;;4972490;28;20046;-84
2021/07/08 05:17:08;;;;;;;3.53;2.35;;;18.40;99.90;;;;;;4966102;28;20051;-84
2021/07/08 05:19:35;;;;;;;3.75;1.95;;;18.30;99.90;;;;;;4965101;28;20647;-84
2021/07/08 05:22:02;;;;;;;6.10;2.83;;;18.40;99.90;;;;;;4963745;28;20070;-84
2021/07/08 05:24:29;;;;;;;8.57;3.00;;;18.40;99.90;;;;;;4964453;28;20620;-84
2021/07/08 05:26:56;;;;;;;7.15;3.25;;;18.50;99.90;;;;;;4966115;28;20047;-84
2021/07/08 05:29:23;;;;;;;3.42;3.13;;;18.60;99.90;;;;;;4980692;28;20397;-84
2021/07/08 05:31:50;;;;;;;5.20;2.38;;;18.60;99.90;;;;;;4963779;28;20042;-84
2021/07/08 05:34:18;;;;;;;2.88;1.75;;;18.70;99.90;;;;;;4965502;28;20050;-84
2021/07/08 05:36:45;;;;;;;3.92;3.20;;;18.70;99.90;;;;;;4964892;28;20053;-84
2021/07/08 05:39:12;;;;;;;3.85;2.50;;;18.80;99.90;;;;;;4962620;28;20066;-84
2021/07/08 05:41:40;;;;;;;4.25;2.28;;;18.80;99.90;;;;;;4966101;28;20565;-84
2021/07/08 05:44:07;;;;;;;2.92;2.10;;;18.80;99.90;;;;;;4961545;28;20067;-83
2021/07/08 05:46:39;;;;;;;5.28;2.40;;;18.80;99.90;;;;;;4965756;28;20453;-84
2021/07/08 05:49:06;;;;;;;2.65;2.45;;;18.80;99.90;;;;;;4963734;28;20524;-84
2021/07/08 05:51:33;;;;;;;4.28;2.00;;;18.90;99.90;;;;;;4965941;28;20056;-84
2021/07/08 05:54:00;;;;;;;2.10;1.90;;;18.90;99.90;;;;;;4962261;28;20063;-84
2021/07/08 05:56:28;;;;;;;3.90;2.22;;;18.90;99.90;;;;;;4949355;28;20123;-84
2021/07/08 05:58:55;;;;;;;2.95;2.20;;;18.90;99.90;;;;;;4964433;28;20252;-84
2021/07/08 06:01:22;;;;;;;3.33;1.90;;;18.90;99.90;;;;;;4964918;28;20702;-84
2021/07/08 06:03:49;;;;;;;4.70;2.30;;;18.90;99.90;;;;;;4962273;28;20424;-83
2021/07/08 06:06:17;;;;;;;4.47;1.95;;;18.90;99.90;;;;;;4967579;28;20473;-83
2021/07/08 06:08:45;;;;;;;4.90;2.08;;;18.90;99.90;;;;;;4967093;28;20039;-84
2021/07/08 06:11:13;;;;;;;4.72;2.40;;;19.00;99.90;;;;;;4969171;28;20090;-84
2021/07/08 06:13:41;;;;;;;3.67;3.13;;;19.00;99.90;;;;;;4969448;28;20039;-84
2021/07/08 06:16:08;;;;;;;4.30;2.47;;;19.00;99.90;;;;;;4952613;28;20465;-85
2021/07/08 06:18:36;;;;;;;3.08;2.85;;;19.10;99.90;;;;;;4952761;28;20122;-84
2021/07/08 06:21:07;;;;;;;4.07;2.67;;;19.10;99.90;;;;;;4968061;28;20133;-84
2021/07/08 06:23:33;;;;;;;;;;;19.10;99.90;;;;;;4951416;28;20809;-84
2021/07/08 06:26:01;;;;;;;2.60;2.40;;;19.10;99.90;;;;;;4984204;28;19948;-84
2021/07/08 06:28:28;;;;;;;2.20;2.00;;;19.20;99.90;;;;;;4967949;28;20039;-84
2021/07/08 06:30:55;;;;;;;2.28;2.05;;;19.30;99.90;;;;;;4980042;28;20046;-84
2021/07/08 06:33:22;;;;;;;8.35;2.30;;;19.30;99.90;;;;;;4968684;28;20038;-84
2021/07/08 06:35:49;;;;;;;4.55;2.40;;;19.30;99.90;;;;;;4967158;28;20512;-84
2021/07/08 06:38:16;;;;;;;13.00;4.32;;;19.40;99.90;;;;;;4978781;28;20047;-84
2021/07/08 06:40:43;;;;;;;3.00;2.55;;;19.40;99.90;;;;;;4949380;28;20054;-85
2021/07/08 06:43:10;;;;;;;3.03;2.28;;;19.50;99.90;;;;;;4983062;28;20433;-84
2021/07/08 06:45:37;;;;;;;3.97;2.47;;;19.50;99.90;;;;;;4964310;28;20043;-84
2021/07/08 06:48:12;;;;;;;2.63;2.30;;;19.50;99.90;;;;;;4981049;28;20062;-84
2021/07/08 06:50:41;;;;;;;3.35;2.30;;;19.40;99.90;;;;;;4967220;28;20050;-84
2021/07/08 06:53:08;;;;;;;5.72;2.65;;;19.40;99.90;;;;;;4983027;28;20153;-84
2021/07/08 06:55:36;;;;;;;3.47;3.00;;;19.30;99.90;;;;;;4965271;28;20063;-84
2021/07/08 06:58:04;;;;;;;4.55;2.90;;;19.30;99.90;;;;;;4950187;28;20444;-84
2021/07/08 07:00:34;;;;;;;4.18;2.75;;;19.30;99.90;;;;;;4967370;28;20078;-84
2021/07/08 07:03:01;;;;;;;3.90;3.30;;;19.30;99.90;;;;;;4968219;28;20130;-84
2021/07/08 07:05:28;;;;;;;4.43;2.50;;;19.20;99.90;;;;;;4966361;28;20062;-85
2021/07/08 07:07:56;;;;;;;3.00;2.70;;;19.30;99.90;;;;;;4951756;28;20704;-84
2021/07/08 07:10:25;;;;;;;4.18;3.17;;;19.40;99.90;;;;;;4965692;28;20043;-84
2021/07/08 07:12:54;;;;;;;2.20;2.00;;;19.40;99.90;;;;;;4970449;28;20053;-84
2021/07/08 07:15:27;;;;;;;2.45;2.10;;;19.50;99.90;;;;;;4983492;28;20133;-85
2021/07/08 07:17:56;;;;;;;5.43;2.58;;;19.50;99.90;;;;;;4949507;28;20074;-84
2021/07/08 07:20:24;;;;;;;3.03;1.85;;;19.50;99.90;;;;;;4949533;28;20809;-84
2021/07/08 07:22:51;;;;;;;7.13;2.30;;;19.60;99.90;;;;;;4967235;28;20059;-85
2021/07/08 07:25:21;;;;;;;4.07;2.38;;;19.50;99.90;;;;;;4950075;28;20158;-84
2021/07/08 07:27:50;;;;;;;4.47;2.50;;;19.60;99.90;;;;;;4964821;28;20070;-85
2021/07/08 07:30:19;;;;;;;5.43;2.47;;;19.50;99.90;;;;;;4967004;28;20105;-84
2021/07/08 07:32:47;;;;;;;9.40;3.67;;;19.50;99.90;;;;;;4964128;28;20047;-85
2021/07/08 07:35:14;;;;;;;3.70;2.72;;;19.50;99.90;;;;;;4982908;28;20133;-85
2021/07/08 07:37:42;;;;;;;12.38;5.20;;;19.60;99.90;;;;;;4962814;28;20049;-85
2021/07/08 07:40:09;;;;;;;3.97;2.38;;;19.70;99.90;;;;;;4965553;28;20043;-84
2021/07/08 07:42:37;;;;;;;5.30;2.75;;;19.70;99.90;;;;;;4964848;28;20440;-85
2021/07/08 07:45:06;;;;;;;5.97;2.72;;;19.70;99.90;;;;;;4967038;28;20778;-84
2021/07/08 07:47:33;;;;;;;3.10;2.25;;;19.60;99.90;;;;;;4963132;28;20101;-85
2021/07/08 07:50:02;;;;;;;8.85;3.70;;;19.60;99.90;;;;;;4965911;28;20054;-84
2021/07/08 07:52:29;;;;;;;4.38;2.53;;;19.70;99.90;;;;;;4966029;28;20054;-84
2021/07/08 07:54:56;;;;;;;4.35;2.60;;;19.70;99.90;;;;;;4950731;28;20545;-84
2021/07/08 07:57:23;;;;;;;4.22;2.38;;;19.70;99.90;;;;;;4981887;28;20079;-84
2021/07/08 07:59:50;;;;;;;6.32;3.55;;;19.60;99.90;;;;;;4980325;28;20743;-84
2021/07/08 08:02:18;;;;;;;4.13;2.55;;;19.70;99.90;;;;;;4962370;28;20065;-84
2021/07/08 08:10:07;;;;;;;7.90;3.75;;;19.70;99.90;;;;;;4964229;28;20094;-84
2021/07/08 08:12:35;;;;;;;3.13;2.90;;;19.80;99.90;;;;;;4967328;28;20046;-85
2021/07/08 08:15:05;;;;;;;2.63;2.30;;;19.70;99.90;;;;;;4981944;28;20051;-84
2021/07/08 08:17:34;;;;;;;5.43;3.67;;;19.80;99.90;;;;;;4965032;28;20449;-84
2021/07/08 08:20:13;;;;;;;2.53;2.33;;;19.80;99.90;;;;;;4963505;28;20143;-85
2021/07/08 08:22:41;;;;;;;3.22;2.25;;;19.80;99.90;;;;;;4980441;28;20057;-85
2021/07/08 08:25:10;;;;;;;3.40;3.10;;;19.70;99.90;;;;;;4961977;28;20051;-84
2021/07/08 08:27:38;;;;;;;3.47;2.58;;;19.80;99.90;;;;;;4967653;28;20039;-85
2021/07/08 08:30:07;;;;;;;4.30;3.17;;;19.80;99.90;;;;;;4979838;28;20053;-85
2021/07/08 08:32:34;;;;;;;4.13;2.78;;;19.90;99.90;;;;;;4966654;28;20051;-84
2021/07/08 08:35:01;;;;;;;5.32;3.08;;;19.90;99.90;;;;;;4965255;28;20134;-84
2021/07/08 08:37:28;;;;;;;2.85;2.50;;;20.10;99.90;;;;;;4965600;28;20055;-84
2021/07/08 08:39:55;;;;;;;2.47;2.28;;;20.10;99.90;;;;;;4979971;28;20105;-85
2021/07/08 08:42:25;;;;;;;2.83;2.47;;;20.10;99.90;;;;;;4982161;28;20053;-84
2021/07/08 08:44:52;;;;;;;8.13;3.73;;;20.10;99.90;;;;;;4966103;28;20062;-83
2021/07/08 08:47:22;;;;;;;2.70;2.15;;;20.20;99.90;;;;;;4950645;28;20047;-84
2021/07/08 08:49:55;;;;;;;2.40;2.20;;;20.20;99.90;;;;;;4961663;28;20039;-85
2021/07/08 08:52:22;;;;;;;4.82;2.72;;;20.40;99.90;;;;;;4966086;28;20043;-85
2021/07/08 08:54:52;;;;;;;2.58;2.20;;;20.40;99.90;;;;;;4979959;28;20051;-85
2021/07/08 08:57:19;;;;;;;2.75;2.22;;;20.50;99.90;;;;;;4966558;28;20047;-85
2021/07/08 08:59:46;;;;;;;3.97;2.58;;;20.60;99.90;;;;;;4963775;28;20492;-84
2021/07/08 09:02:18;;;;;;;4.32;2.53;;;20.50;99.90;;;;;;4978476;28;20133;-85
2021/07/08 09:04:47;;;;;;;3.47;2.67;;;20.50;99.90;;;;;;4966359;28;20074;-85
2021/07/08 09:07:22;;;;;;;3.17;2.33;;;20.50;99.90;;;;;;4964412;28;20508;-84
2021/07/08 09:09:56;;;;;;;3.38;2.38;;;20.40;99.90;;;;;;4963209;28;20557;-84
2021/07/08 09:12:25;;;;;;;5.00;2.92;;;20.50;99.90;;;;;;4980700;28;20047;-85
2021/07/08 09:15:13;;;;;;;3.08;2.40;;;20.50;99.90;;;;;;4968439;28;20046;-85
2021/07/08 09:17:41;;;;;;;5.07;2.42;;;20.50;99.90;;;;;;4963750;28;20046;-85
2021/07/08 09:20:12;;;;;;;2.95;2.30;;;20.60;99.90;;;;;;4946966;28;20137;-84
2021/07/08 09:22:40;;;;;;;2.25;2.13;;;20.60;99.90;;;;;;4964960;28;20460;-84
2021/07/08 09:25:19;;;;;;;3.60;2.35;;;20.60;99.90;;;;;;4964923;28;20047;-84
2021/07/08 09:28:14;;;;;;;3.70;2.67;;;20.50;99.90;;;;;;4981734;28;20049;-84
2021/07/08 09:30:43;;;;;;;3.42;3.10;;;20.40;99.90;;;;;;4963662;28;20057;-84
2021/07/08 09:33:35;;;;;;;2.58;2.10;;;20.50;99.90;;;;;;4946500;28;20516;-84
2021/07/08 09:36:20;;;;;;;3.25;2.95;;;20.70;99.90;;;;;;4977955;28;20046;-84
2021/07/08 09:38:56;;;;;;;5.22;2.85;;;21.00;99.90;;;;;;4963761;28;20039;-84
2021/07/08 09:41:25;;;;;;;12.13;3.88;;;21.10;99.90;;;;;;4969663;28;20058;-85
2021/07/08 09:43:52;;;;;;;6.70;3.83;;;21.10;99.90;;;;;;4966199;28;20050;-84
2021/07/08 09:46:35;;;;;;;2.63;2.42;;;21.10;99.90;;;;;;4969375;28;20058;-85
2021/07/08 09:49:08;;;;;;;2.65;2.28;;;21.20;99.90;;;;;;4967144;28;20042;-85
2021/07/08 09:51:36;;;;;;;7.15;2.88;;;21.40;99.90;;;;;;4968121;28;20051;-84
2021/07/08 09:54:25;;;;;;;5.05;2.83;;;21.30;99.90;;;;;;4967029;28;20058;-85
2021/07/08 09:56:56;;;;;;;5.63;2.47;;;21.30;99.90;;;;;;4967844;28;20386;-85
2021/07/08 09:59:35;;;;;;;4.25;2.35;;;21.30;99.90;;;;;;4969063;28;20153;-85
2021/07/08 10:02:02;;;;;;;5.80;2.90;;;21.30;99.90;;;;;;4966119;28;20051;-84
2021/07/08 10:04:29;;;;;;;7.40;2.47;;;21.30;99.90;;;;;;4970053;28;20046;-85
2021/07/08 10:06:57;;;;;;;7.22;3.47;;;21.20;99.90;;;;;;4963399;28;20511;-85
2021/07/08 10:09:24;;;;;;;2.85;2.35;;;21.10;99.90;;;;;;4969419;28;20054;-84
2021/07/08 10:11:56;;;;;;;3.15;2.17;;;20.90;99.90;;;;;;4979174;28;20068;-85
2021/07/08 10:14:24;;;;;;;5.07;3.65;;;20.90;99.90;;;;;;4969382;28;20054;-84
2021/07/08 10:16:54;;;;;;;3.60;2.10;;;21.10;99.90;;;;;;4950388;28;20097;-84
2021/07/08 10:19:23;;;;;;;4.70;3.25;;;21.00;99.90;;;;;;4969601;28;20062;-85
2021/07/08 10:21:51;;;;;;;3.45;3.15;;;21.10;99.90;;;;;;4966718;28;20043;-84
2021/07/08 10:24:21;;;;;;;7.78;2.75;;;21.00;99.90;;;;;;4983704;28;20203;-84
2021/07/08 10:26:49;;;;;;;3.53;3.22;;;21.30;99.90;;;;;;4968543;28;20492;-85
2021/07/08 10:29:16;;;;;;;3.67;3.30;;;21.50;99.90;;;;;;4968689;28;20051;-84
2021/07/08 10:31:49;;;;;;;3.70;2.53;;;21.60;99.90;;;;;;4984550;28;20050;-84
2021/07/08 10:34:18;;;;;;;4.00;2.20;;;21.70;99.90;;;;;;4983657;28;20066;-84
2021/07/08 10:36:54;;;;;;;4.75;2.83;;;21.60;99.90;;;;;;4966550;28;20053;-84
2021/07/08 10:39:23;;;;;;;4.25;3.85;;;21.60;99.90;;;;;;4967077;28;20150;-85
2021/07/08 10:41:58;;;;;;;6.90;2.70;;;21.50;99.90;;;;;;4969035;28;20081;-85
2021/07/08 10:44:41;;;;;;;2.55;1.83;;;21.50;99.90;;;;;;4967422;28;20464;-84
2021/07/08 10:47:32;;;;;;;2.88;2.45;;;21.60;99.90;;;;;;4968258;28;20097;-84
2021/07/08 10:49:59;;;;;;;3.53;2.45;;;21.70;99.90;;;;;;4981658;28;20063;-84
2021/07/08 10:52:47;;;;;;;7.00;3.10;;;21.70;99.90;;;;;;4950181;28;20070;-84
2021/07/08 10:55:34;;;;;;;2.70;2.28;;;21.60;99.90;;;;;;4969178;28;20400;-84
2021/07/08 10:58:01;;;;;;;2.58;2.33;;;21.50;99.90;;;;;;4980936;28;20038;-83
2021/07/08 11:00:48;;;;;;;5.20;3.58;;;21.80;99.90;;;;;;4979594;28;20106;-84
2021/07/08 11:03:41;;;;;;;4.88;3.70;;;22.10;99.90;;;;;;4948138;28;20094;-84
2021/07/08 11:06:19;;;;;;;3.30;3.00;;;22.10;99.90;;;;;;4966048;28;22173;-84
2021/07/08 11:09:05;;;;;;;3.55;2.42;;;22.00;99.90;;;;;;4967067;28;20043;-84
2021/07/08 11:11:35;;;;;;;3.10;2.20;;;22.00;99.90;;;;;;4978184;28;20042;-85
2021/07/08 11:14:08;;;;;;;;;;;22.00;99.90;;;;;;4966856;28;20043;-84
2021/07/08 11:16:58;;;;;;;3.50;2.25;;;22.10;99.90;;;;;;4967905;28;20014;-84
2021/07/08 11:19:25;;;;;;;;;;;22.10;99.90;;;;;;4967041;28;20047;-84
2021/07/08 11:21:53;;;;;;;4.20;2.97;;;22.10;99.90;;;;;;4960005;28;19947;-85
2021/07/08 11:24:29;;;;;;;4.63;2.97;;;22.10;99.90;;;;;;4983774;28;20685;-85
2021/07/08 11:27:03;;;;;;;3.00;2.72;;;21.90;99.90;;;;;;4968841;28;20047;-84
2021/07/08 11:29:40;;;;;;;2.88;2.20;;;22.00;99.90;;;;;;4968548;28;20050;-84
2021/07/08 11:32:23;;;;;;;4.05;3.35;;;22.00;99.90;;;;;;4981251;28;20047;-84
2021/07/08 11:35:55;;;;;;;4.43;3.85;;;22.20;99.90;;;;;;4965967;28;20110;-84
2021/07/08 11:38:18;;;;;;;7.10;4.82;;;22.20;99.90;;;;;;4962132;28;20057;-85
2021/07/08 11:40:49;;;;;;;3.97;3.05;;;22.50;99.90;;;;;;4966379;28;20069;-85
2021/07/08 11:43:36;;;;;;;4.15;2.67;;;22.10;99.90;;;;;;4981699;28;20043;-84
2021/07/08 11:46:06;;;;;;;6.85;2.65;;;22.00;99.90;;;;;;4982887;28;20039;-82
2021/07/08 11:48:44;;;;;;;6.00;3.15;;;22.10;99.90;;;;;;4968285;28;20066;-83
2021/07/08 11:51:18;;;;;;;3.22;2.92;;;22.50;99.90;;;;;;4964106;28;20048;-84
2021/07/08 11:53:47;;;;;;;4.07;2.97;;;22.70;99.90;;;;;;4963950;28;20399;-84
2021/07/08 11:56:19;;;;;;;2.78;2.17;;;22.80;99.90;;;;;;4980346;28;20105;-83
2021/07/08 11:58:46;;;;;;;3.45;2.30;;;22.60;99.90;;;;;;4966966;28;20062;-83
2021/07/08 12:01:19;;;;;;;3.05;2.22;;;22.80;99.90;;;;;;4966055;28;20039;-84
2021/07/08 12:03:57;;;;;;;8.07;2.47;;;22.80;99.90;;;;;;4964954;28;20043;-84
2021/07/08 12:06:27;;;;;;;4.55;2.20;;;22.80;99.90;;;;;;4963817;28;20059;-84
2021/07/08 12:08:59;;;;;;;3.42;2.78;;;23.10;99.90;;;;;;4964884;28;20055;-84
2021/07/08 12:11:35;;;;;;;4.68;2.65;;;23.00;99.90;;;;;;4980490;28;20051;-84
2021/07/08 12:14:07;;;;;;;4.53;2.55;;;22.50;99.90;;;;;;4964738;28;20432;-85
2021/07/08 12:16:40;;;;;;;4.50;2.92;;;22.40;99.90;;;;;;4980182;28;20047;-84
2021/07/08 12:19:23;;;;;;;2.90;2.33;;;22.60;99.90;;;;;;4967122;28;20125;-83
2021/07/08 12:21:53;;;;;;;6.63;2.97;;;22.70;99.90;;;;;;4983372;28;20567;-85
2021/07/08 12:24:29;;;;;;;5.45;2.80;;;22.70;99.90;;;;;;4962910;28;20109;-84
2021/07/08 12:26:58;;;;;;;3.35;2.28;;;22.50;99.90;;;;;;4980901;28;20049;-84
2021/07/08 12:29:40;;;;;;;3.83;2.22;;;22.70;99.90;;;;;;4982530;28;20597;-84
2021/07/08 12:32:09;;;;;;;2.92;2.53;;;22.70;99.90;;;;;;4943648;28;20057;-84
2021/07/08 12:34:46;;;;;;;3.20;2.72;;;22.60;99.90;;;;;;4965633;28;20496;-85
2021/07/08 12:37:23;;;;;;;5.75;2.15;;;22.40;99.90;;;;;;4976131;28;20390;-84
2021/07/08 12:40:03;;;;;;;3.40;1.92;;;22.30;99.90;;;;;;4962142;28;20142;-84
2021/07/08 12:42:34;;;;;;;4.95;2.33;;;22.20;99.90;;;;;;4966015;28;20535;-84
2021/07/08 12:45:05;;;;;;;3.30;2.00;;;22.40;99.90;;;;;;4967161;28;20042;-84
2021/07/08 12:47:33;;;;;;;3.97;1.92;;;22.70;99.90;;;;;;4969238;28;20046;-84
2021/07/08 12:50:01;;;;;;;3.80;1.83;;;22.70;99.90;;;;;;4961735;28;20042;-84
2021/07/08 12:52:29;;;;;;;2.58;2.10;;;22.30;99.90;;;;;;4965405;28;20047;-83
2021/07/08 12:54:56;;;;;;;3.10;2.08;;;22.30;99.90;;;;;;4966374;28;20050;-84
2021/07/08 12:57:23;;;;;;;4.53;1.90;;;22.20;99.90;;;;;;4964891;28;20165;-83
2021/07/08 13:00:00;;;;;;;4.10;1.88;;;22.30;99.90;;;;;;4963776;28;20105;-83
2021/07/08 13:02:29;;;;;;;4.20;2.72;;;22.40;99.90;;;;;;4965341;28;20088;-83
2021/07/08 13:05:11;;;;;;;5.72;3.55;;;22.50;99.90;;;;;;4963908;28;20051;-84
2021/07/08 13:07:48;;;;;;;2.00;1.80;;;22.30;99.90;;;;;;4964688;28;20054;-84